createdAt,value
2024-02-20T00:07:55.887Z,100031.94
2024-02-20T00:17:57.492Z,100033.63
2024-02-20T00:27:59.057Z,100029.78
2024-02-20T00:38:00.666Z,100019.88
2024-02-20T00:48:02.241Z,100030.38
2024-02-20T00:58:04.007Z,100023.69
2024-02-20T01:08:05.625Z,100013.56
2024-02-20T01:18:07.282Z,100015.19
2024-02-20T01:28:08.938Z,100013.53
2024-02-20T01:38:10.456Z,100010.47
2024-02-20T01:48:12.009Z,100000.72
2024-02-20T01:58:13.651Z,99998.03
2024-02-20T02:08:15.312Z,99991.06
2024-02-20T02:18:16.759Z,99976.91
2024-02-20T02:28:18.432Z,99981.72
2024-02-20T02:38:20.063Z,99987.53
2024-02-20T02:48:21.519Z,99990.03
2024-02-20T02:58:23.172Z,99983.97
2024-02-20T03:08:25.002Z,99987.06
2024-02-20T03:18:26.460Z,99997.28
2024-02-20T03:28:28.222Z,100001.03
2024-02-20T03:38:29.742Z,100002.78
2024-02-20T03:48:31.351Z,100010.06
2024-02-20T03:58:33.092Z,100020.16
2024-02-20T04:08:34.785Z,100025.03
2024-02-20T04:18:36.313Z,100021.56
2024-02-20T04:28:40.151Z,100030.56
2024-02-20T04:38:41.785Z,100029.59
2024-02-20T04:48:43.258Z,100028.56
2024-02-20T04:58:44.867Z,100020.53
2024-02-20T05:08:46.411Z,100029.22
2024-02-20T05:18:47.909Z,100027.22
2024-02-20T05:28:49.920Z,100028.97
2024-02-20T05:38:52.041Z,100031.25
2024-02-20T05:48:55.910Z,100041.19
2024-02-20T05:58:58.050Z,100051.13
2024-02-20T06:08:59.685Z,100039.06
2024-02-20T06:19:01.400Z,100045.47
2024-02-20T06:29:03.132Z,100052.31
2024-02-20T06:39:05.352Z,100059.03
2024-02-20T06:49:06.946Z,100069.88
2024-02-20T06:59:09.598Z,100072.78
2024-02-20T07:09:11.220Z,100075.28
2024-02-20T07:19:12.798Z,100082.97
2024-02-20T07:29:14.427Z,100069.13
2024-02-20T07:39:15.893Z,100068.41
2024-02-20T07:49:17.784Z,100067.34
2024-02-20T07:59:19.803Z,100069.91
2024-02-20T08:09:21.248Z,100062.97
2024-02-20T08:19:22.815Z,100063.47
2024-02-20T08:29:26.516Z,100066.94
2024-02-20T08:39:28.244Z,100071.38
2024-02-20T08:49:32.235Z,100082.16
2024-02-20T08:59:34.439Z,100089.53
2024-02-20T09:09:36.078Z,100094.78
2024-02-20T09:19:37.623Z,100094.13
2024-02-20T09:29:39.255Z,100089.28
2024-02-20T09:39:40.744Z,100100.78
2024-02-20T09:49:42.251Z,100109.97
2024-02-20T09:59:43.902Z,100108.94
2024-02-20T10:09:45.891Z,100123.63
2024-02-20T10:19:47.446Z,100126.78
2024-02-20T10:29:49.041Z,100122.28
2024-02-20T10:39:50.674Z,100112.34
2024-02-20T10:49:52.230Z,100100.03
2024-02-20T10:59:53.989Z,100091.81
2024-02-20T11:09:55.772Z,100083.00
2024-02-20T11:19:57.357Z,100069.47
2024-02-20T11:29:58.877Z,100061.81
2024-02-20T11:40:00.725Z,100059.16
2024-02-20T11:50:02.678Z,100048.72
2024-02-20T12:00:06.345Z,100029.72
2024-02-20T12:10:12.806Z,100027.94
2024-02-20T12:20:15.007Z,100016.56
2024-02-20T12:30:16.499Z,100000.19
2024-02-20T12:40:18.501Z,100000.44
2024-02-20T12:50:20.208Z,99987.66
2024-02-20T13:00:21.736Z,99984.13
2024-02-20T13:10:23.594Z,99971.03
2024-02-20T13:20:25.080Z,99991.56
2024-02-20T13:30:26.715Z,99978.41
2024-02-20T13:40:29.217Z,99967.72
2024-02-20T13:50:30.774Z,99965.53
2024-02-20T14:00:32.525Z,99992.00
2024-02-20T14:10:34.550Z,99983.56
2024-02-20T14:20:36.787Z,99980.84
2024-02-20T14:30:45.095Z,99983.34
2024-02-20T14:40:51.897Z,99987.91
2024-02-20T14:50:53.431Z,99985.28
2024-02-20T15:00:55.377Z,100018.00
2024-02-20T15:10:57.467Z,100022.50
2024-02-20T15:20:59.284Z,100009.09
2024-02-20T15:31:00.806Z,100015.44
2024-02-20T15:41:02.785Z,100036.44
2024-02-20T15:51:04.371Z,100025.97
2024-02-20T16:01:06.415Z,100044.38
2024-02-20T16:11:09.334Z,100049.19
2024-02-20T16:21:11.055Z,100076.28
2024-02-20T16:31:12.986Z,100088.44
2024-02-20T16:41:14.794Z,100078.41
2024-02-20T16:51:21.845Z,100105.41
2024-02-20T17:01:23.679Z,100171.69
2024-02-20T17:11:25.574Z,100160.22
2024-02-20T17:21:27.042Z,100154.53
2024-02-20T17:31:28.530Z,100152.72
2024-02-20T17:41:30.842Z,100169.06
2024-02-20T17:51:35.069Z,100185.94
2024-02-20T18:01:36.643Z,100179.03
2024-02-20T18:11:38.414Z,100186.69
2024-02-20T18:21:41.474Z,100190.16
2024-02-20T18:31:43.844Z,100202.03
2024-02-20T18:41:51.077Z,100191.00
2024-02-20T18:51:52.618Z,100191.91
2024-02-20T19:01:56.818Z,100185.88
2024-02-20T19:11:59.287Z,100190.84
2024-02-20T19:22:00.805Z,100196.69
2024-02-20T19:32:02.874Z,100182.84
2024-02-20T19:42:04.647Z,100203.13
2024-02-20T19:52:06.314Z,100207.31
2024-02-20T20:02:08.019Z,100199.69
2024-02-20T20:12:11.740Z,100216.34
2024-02-20T20:22:13.375Z,100241.34
2024-02-20T20:32:17.676Z,100260.53
2024-02-20T20:42:19.710Z,100254.41
2024-02-20T20:52:21.227Z,100236.47
2024-02-20T21:02:22.901Z,100228.09
2024-02-20T21:12:25.948Z,100232.28
2024-02-20T21:22:27.399Z,100223.09
2024-02-20T21:32:28.971Z,100207.00
2024-02-20T21:42:30.975Z,100192.50
2024-02-20T21:52:32.831Z,100202.59
2024-02-20T22:02:34.587Z,100193.97
2024-02-20T22:12:36.299Z,100199.06
2024-02-20T22:22:37.871Z,100208.25
2024-02-20T22:32:39.434Z,100184.75
2024-02-20T22:42:41.486Z,100190.53
2024-02-20T22:52:43.318Z,100199.75
2024-02-20T23:02:45.149Z,100191.13
2024-02-20T23:12:46.775Z,100203.25
2024-02-20T23:22:48.292Z,100200.22
2024-02-20T23:32:50.117Z,100209.72
2024-02-20T23:42:51.701Z,100209.59
2024-02-20T23:52:54.396Z,100210.72
